Bone Gap, Illinois
Current Conditions -  °F | °C
As of 12:55 AM on Thursday 27 Nov 2014 (Local Time) from KAJG Reporting Station
Light Snow Light Snow  
Wind Chill: 29°   Ceiling: 700
Heat Index: 34°   Visibility: 2.5mi
Dew Point: 32°   Wind: 6mph
Humidity: 93%   Direction: 340°NNW
Pressure: 30.16"   Gusts: NA
Location:  38.45°N, 88°W
Report Text: KAJG 270655Z AUTO 34005KT 2 1/2SM -SN BKN007 BKN021 OVC041 01/00 A3016 RMK AO2
Loading
Personal Weather Stations






























Interactive Weather Map New forecast layout! Learn more

10-Day Weather Forecast

Advertisements
Track Severe Weather on mobile